Terminal Aerodrome Forecast
Issued by NWS Twin Cities, MN

Home | Current Version | Previous Version | Text Only | Print | Product List | Glossary Off
Versions: 1 2 3 4 5 6 7 8 9 10 11 12 13 14 15 16 17

295
FTUS43 KMPX 022338
TAFSTC
TAF
KSTC 022338Z 0300/0324 30004KT P6SM OVC016
     FM031400 17005KT P6SM OVC022
     FM032000 15007KT P6SM BKN035=

USA.gov is the U.S. government's official web portal to all federal, state and local government web resources and services.